createdAt,value
2017-10-07T00:00:07.027Z,85.9
2017-10-07T00:00:37.550Z,86
2017-10-07T00:01:34.999Z,86.2
2017-10-07T00:02:34.363Z,86.1
2017-10-07T00:03:33.699Z,86.2
2017-10-07T00:04:32.535Z,86.5
2017-10-07T00:05:31.998Z,86.5
2017-10-07T00:06:30.711Z,86.3
2017-10-07T00:07:30.051Z,86.4
2017-10-07T00:08:29.135Z,86.5
2017-10-07T00:09:28.218Z,86.2
2017-10-07T00:10:27.435Z,86.1
2017-10-07T00:11:26.522Z,86.1
2017-10-07T00:12:25.890Z,86.2
2017-10-07T00:13:24.846Z,86.1
2017-10-07T00:14:24.306Z,85.9
2017-10-07T00:15:23.391Z,86.1
2017-10-07T00:16:22.219Z,86.1
2017-10-07T00:17:21.698Z,85.9
2017-10-07T00:18:20.913Z,86
2017-10-07T00:19:19.642Z,86
2017-10-07T00:20:18.972Z,86.2
2017-10-07T00:21:18.465Z,86.3
2017-10-07T00:22:17.300Z,86.3
2017-10-07T00:23:16.387Z,86.4
2017-10-07T00:24:15.726Z,86.3
2017-10-07T00:25:15.078Z,86.3
2017-10-07T00:26:13.908Z,86.4
2017-10-07T00:27:13.114Z,86.4
2017-10-07T00:28:12.203Z,86.5
2017-10-07T00:29:11.423Z,86.5
2017-10-07T00:29:41.823Z,86.5
2017-10-07T00:30:12.465Z,86.2
2017-10-07T00:30:43.119Z,86.2
2017-10-07T00:32:09.014Z,86.4
2017-10-07T00:33:07.974Z,86.3
2017-10-07T00:34:07.318Z,86.4
2017-10-07T00:35:06.151Z,86.4
2017-10-07T00:36:05.622Z,86.5
2017-10-07T00:37:04.706Z,86.5
2017-10-07T00:38:03.660Z,86.5
2017-10-07T00:39:03.128Z,86.5
2017-10-07T00:40:01.966Z,86.5
2017-10-07T00:40:32.491Z,86.5
2017-10-07T00:41:02.769Z,86.7
2017-10-07T00:41:33.422Z,86.7
2017-10-07T00:42:03.947Z,86.4
2017-10-07T00:42:34.479Z,86.4
2017-10-07T00:43:04.888Z,86.5
2017-10-07T00:43:35.042Z,86.5
2017-10-07T00:44:05.447Z,86.6
2017-10-07T00:44:57.740Z,86.6
2017-10-07T00:45:56.945Z,86.8
2017-10-07T00:46:56.282Z,86.8
2017-10-07T00:47:55.238Z,86.9
2017-10-07T00:48:54.451Z,87.1
2017-10-07T00:49:53.936Z,86.9
2017-10-07T00:50:52.894Z,86.9
2017-10-07T00:51:52.099Z,87.1
2017-10-07T00:52:51.197Z,87.4
2017-10-07T00:53:50.287Z,87.3
2017-10-07T00:54:49.621Z,87.1
2017-10-07T00:55:48.709Z,87.3
2017-10-07T00:56:47.671Z,87.5
2017-10-07T00:57:46.639Z,87.4
2017-10-07T00:58:46.219Z,87.6
2017-10-07T00:59:45.309Z,87.6
2017-10-07T01:00:44.527Z,87.7
2017-10-07T01:01:43.488Z,87.8
2017-10-07T01:02:42.958Z,88
2017-10-07T01:03:41.796Z,88.1
2017-10-07T01:04:41.008Z,88.1
2017-10-07T01:05:39.840Z,88
2017-10-07T01:06:39.424Z,88.1
2017-10-07T01:07:38.507Z,88.2
2017-10-07T01:08:37.592Z,88.5
2017-10-07T01:09:36.425Z,88.6
2017-10-07T01:10:35.769Z,88.7
2017-10-07T01:11:35.144Z,88.8
2017-10-07T01:12:34.478Z,88.8
2017-10-07T01:13:04.754Z,88.8
2017-10-07T01:13:35.396Z,89
2017-10-07T01:14:32.598Z,89.1
2017-10-07T01:15:31.811Z,89.1
2017-10-07T01:16:30.645Z,89.1
2017-10-07T01:17:29.847Z,89.2
2017-10-07T01:18:28.813Z,89.3
2017-10-07T01:19:28.018Z,89.2
2017-10-07T01:20:27.229Z,89.3
2017-10-07T01:21:26.694Z,89.3
2017-10-07T01:23:24.786Z,89.2
2017-10-07T01:23:55.195Z,89.2
2017-10-07T01:25:23.212Z,89.1
2017-10-07T01:28:20.563Z,89.2
2017-10-07T01:29:19.893Z,89.2
2017-10-07T01:30:19.099Z,89.3
2017-10-07T01:31:17.937Z,89.2
2017-10-07T01:32:17.276Z,89.2
2017-10-07T01:33:16.487Z,89.4
2017-10-07T01:33:46.630Z,89.4
2017-10-07T01:35:14.533Z,89.2
2017-10-07T01:36:14.116Z,89.4
2017-10-07T01:37:12.699Z,89.2
2017-10-07T01:38:12.161Z,89.2
2017-10-07T01:39:11.368Z,89.4
2017-10-07T01:40:10.320Z,89.4
2017-10-07T01:41:09.534Z,89.6
2017-10-07T01:42:08.862Z,89.6
2017-10-07T01:43:08.069Z,89.7
2017-10-07T01:45:06.034Z,89.7
2017-10-07T01:46:05.380Z,89.7
2017-10-07T01:47:04.719Z,89.6
2017-10-07T01:48:03.807Z,89.9
2017-10-07T01:49:02.521Z,89.9
2017-10-07T01:50:01.863Z,89.8
2017-10-07T01:51:01.084Z,89.8
2017-10-07T01:52:00.293Z,89.9
2017-10-07T01:52:59.511Z,89.9
2017-10-07T01:53:58.718Z,90
2017-10-07T01:54:57.936Z,90.2
2017-10-07T01:55:56.766Z,90.2
2017-10-07T01:56:56.106Z,90.3
2017-10-07T01:57:55.193Z,90.3
2017-10-07T01:58:54.404Z,90.2
2017-10-07T01:59:53.751Z,90.4
2017-10-07T02:00:52.587Z,90.3
2017-10-07T02:01:23.376Z,90.3
2017-10-07T02:01:53.900Z,90.3
2017-10-07T02:02:51.220Z,90.4
2017-10-07T02:03:50.066Z,90.4
2017-10-07T02:04:49.277Z,90.5
2017-10-07T02:05:48.360Z,90.5
2017-10-07T02:06:47.567Z,90.5
2017-10-07T02:07:46.782Z,90.5
2017-10-07T02:09:44.750Z,90.7
2017-10-07T02:10:44.335Z,90.6
2017-10-07T02:11:43.022Z,90.6
2017-10-07T02:12:42.255Z,90.7
2017-10-07T02:13:41.449Z,90.7
2017-10-07T02:14:40.653Z,90.7
2017-10-07T02:15:40.108Z,90.7
2017-10-07T02:16:39.051Z,90.7
2017-10-07T02:17:38.369Z,90.8
2017-10-07T02:18:37.311Z,90.7
2017-10-07T02:19:36.633Z,90.8
2017-10-07T02:20:35.955Z,90.8
2017-10-07T02:21:35.143Z,90.9
2017-10-07T02:22:33.832Z,90.9
2017-10-07T02:23:32.902Z,90.8
2017-10-07T02:24:32.349Z,90.7
2017-10-07T02:26:30.809Z,90.8
2017-10-07T02:28:28.759Z,90.8
2017-10-07T02:30:27.335Z,90.8
2017-10-07T02:31:26.532Z,90.6
2017-10-07T02:32:25.228Z,90.7
2017-10-07T02:33:24.556Z,90.6
2017-10-07T02:34:23.636Z,90.7
2017-10-07T02:35:22.837Z,90.6
2017-10-07T02:36:22.410Z,90.7
2017-10-07T02:37:21.111Z,90.5
2017-10-07T02:38:20.565Z,90.5
2017-10-07T02:39:19.387Z,90.5
2017-10-07T02:40:18.705Z,90.6
2017-10-07T02:41:18.030Z,90.6
2017-10-07T02:43:16.245Z,90.8
2017-10-07T02:44:15.437Z,90.7
2017-10-07T02:45:14.637Z,90.7
2017-10-07T02:46:13.763Z,90.6
2017-10-07T02:47:12.947Z,90.8
2017-10-07T02:48:11.764Z,90.9
2017-10-07T02:49:11.224Z,90.7
2017-10-07T02:50:10.165Z,90.8
2017-10-07T02:51:09.371Z,90.8
2017-10-07T02:52:08.573Z,90.8
2017-10-07T02:53:07.901Z,90.7
2017-10-07T02:54:06.966Z,90.8
2017-10-07T02:55:06.040Z,90.7
2017-10-07T02:56:05.368Z,90.6
2017-10-07T02:57:04.188Z,90.6
2017-10-07T02:58:03.259Z,90.5
2017-10-07T02:59:02.451Z,90.5
2017-10-07T03:00:01.900Z,90.6
2017-10-07T03:01:00.715Z,90.7
2017-10-07T03:02:00.279Z,90.8
2017-10-07T03:02:58.973Z,90.4
2017-10-07T03:03:58.538Z,90.5
2017-10-07T03:04:57.481Z,90.2
2017-10-07T03:05:57.046Z,90.4
2017-10-07T03:06:55.864Z,90
2017-10-07T03:07:54.936Z,90
2017-10-07T03:08:54.133Z,89.7
2017-10-07T03:09:53.195Z,89.7
2017-10-07T03:10:52.391Z,89.6
2017-10-07T03:12:50.968Z,89.8
2017-10-07T03:13:50.158Z,89.8
2017-10-07T03:14:49.100Z,89.8
2017-10-07T03:15:48.165Z,89.9
2017-10-07T03:16:47.228Z,89.8
2017-10-07T03:17:46.555Z,90
2017-10-07T03:18:45.999Z,89.9
2017-10-07T03:19:44.813Z,90
2017-10-07T03:20:44.008Z,90.1
2017-10-07T03:21:43.212Z,90.2
2017-10-07T03:22:42.279Z,90.3
2017-10-07T03:23:41.727Z,90.1
2017-10-07T03:24:40.928Z,90.2
2017-10-07T03:25:39.997Z,90.2
2017-10-07T03:26:39.318Z,90.4
2017-10-07T03:27:38.012Z,90.2
2017-10-07T03:28:37.074Z,90.3
2017-10-07T03:29:36.517Z,90.1
2017-10-07T03:30:35.497Z,90.2
2017-10-07T03:31:34.697Z,90.3
2017-10-07T03:32:34.142Z,90.4
2017-10-07T03:34:32.094Z,90.2
2017-10-07T03:36:30.551Z,89.7
2017-10-07T03:37:29.626Z,89.2
2017-10-07T03:38:29.073Z,89.3
2017-10-07T03:38:59.328Z,89.3
2017-10-07T03:39:30.102Z,89.4
2017-10-07T03:40:27.035Z,89.4
2017-10-07T03:41:26.614Z,89.3
2017-10-07T03:42:25.701Z,89.2
2017-10-07T03:43:24.384Z,89.4
2017-10-07T03:44:23.590Z,89.4
2017-10-07T03:45:22.788Z,89.5
2017-10-07T03:46:22.232Z,89.3
2017-10-07T03:47:21.168Z,89.3
2017-10-07T03:48:20.239Z,89.2
2017-10-07T03:49:19.311Z,89.4
2017-10-07T03:50:18.791Z,89.3
2017-10-07T03:51:17.745Z,89.2
2017-10-07T03:52:16.820Z,88.9
2017-10-07T03:53:16.154Z,89
2017-10-07T03:54:15.224Z,89.1
2017-10-07T03:55:14.428Z,89.2
2017-10-07T03:56:13.752Z,89.2
2017-10-07T03:57:12.944Z,89.2
2017-10-07T03:58:11.892Z,89.3
2017-10-07T03:58:42.545Z,89.3
2017-10-07T03:59:12.796Z,89.3
2017-10-07T04:02:08.746Z,89
2017-10-07T04:03:07.941Z,88.8
2017-10-07T04:04:07.139Z,88.7
2017-10-07T04:05:06.332Z,88.8
2017-10-07T04:06:05.020Z,88.6
2017-10-07T04:07:04.595Z,88.5
2017-10-07T04:08:03.415Z,88.5
2017-10-07T04:09:02.617Z,88.1
2017-10-07T04:10:01.809Z,88.2
2017-10-07T04:12:00.012Z,87.8
2017-10-07T04:12:59.217Z,87.7
2017-10-07T04:13:58.663Z,87.7
2017-10-07T04:14:57.852Z,87.5
2017-10-07T04:15:56.673Z,87.4
2017-10-07T04:16:55.996Z,87.5
2017-10-07T04:17:55.069Z,87.3
2017-10-07T04:18:54.389Z,87
2017-10-07T04:19:53.331Z,86.8
2017-10-07T04:20:52.648Z,86.5
2017-10-07T04:21:51.969Z,86.6
2017-10-07T04:22:50.652Z,86.9
2017-10-07T04:23:50.229Z,86.5
2017-10-07T04:24:49.299Z,86.9
2017-10-07T04:25:48.377Z,87.1
2017-10-07T04:26:47.570Z,86.9
2017-10-07T04:27:47.013Z,86.9
2017-10-07T04:28:46.081Z,87.1
2017-10-07T04:29:44.773Z,86.9
2017-10-07T04:30:44.093Z,86.8
2017-10-07T04:31:43.166Z,86.7
2017-10-07T04:32:42.484Z,86.9
2017-10-07T04:33:13.130Z,86.9
2017-10-07T04:33:43.767Z,86.8
2017-10-07T04:34:40.698Z,86.7
2017-10-07T04:35:39.893Z,86.5
2017-10-07T04:36:39.084Z,86.8
2017-10-07T04:37:38.146Z,86.9
2017-10-07T04:38:37.711Z,86.6
2017-10-07T04:39:36.525Z,86.7
2017-10-07T04:40:06.900Z,86.7
2017-10-07T04:40:37.418Z,86.8
2017-10-07T04:41:35.109Z,86.4
2017-10-07T04:42:34.298Z,86.7
2017-10-07T04:43:33.117Z,87
2017-10-07T04:44:32.428Z,87.1
2017-10-07T04:45:31.244Z,86.7
2017-10-07T04:46:30.561Z,86.4
2017-10-07T04:47:29.879Z,86.4
2017-10-07T04:48:29.080Z,86.3
2017-10-07T04:49:27.902Z,86.5
2017-10-07T04:50:27.228Z,86.5
2017-10-07T04:50:57.736Z,86.5
2017-10-07T04:52:25.746Z,86.3
2017-10-07T04:53:24.576Z,86.4
2017-10-07T04:54:23.774Z,86.4
2017-10-07T04:55:22.967Z,85.8
2017-10-07T04:56:22.280Z,86.3
2017-10-07T04:57:21.353Z,86.1
2017-10-07T04:58:20.683Z,86.1
2017-10-07T04:59:19.872Z,86.4
2017-10-07T05:00:18.813Z,86.3
2017-10-07T05:01:18.006Z,86.3
2017-10-07T05:02:17.200Z,86.1
2017-10-07T05:03:16.513Z,86.3
2017-10-07T05:04:15.593Z,86.2
2017-10-07T05:05:14.911Z,86.3
2017-10-07T05:06:13.977Z,86.1
2017-10-07T05:07:12.934Z,85.9
2017-10-07T05:08:12.141Z,86.3
2017-10-07T05:09:11.334Z,86.3
2017-10-07T05:10:10.657Z,86
2017-10-07T05:11:09.475Z,86
2017-10-07T05:12:08.663Z,86
2017-10-07T05:13:07.872Z,85.7
2017-10-07T05:14:07.207Z,86
2017-10-07T05:15:06.269Z,85.9
2017-10-07T05:16:05.589Z,86.1
2017-10-07T05:17:04.414Z,86
2017-10-07T05:18:03.857Z,86
2017-10-07T05:19:03.054Z,85.8
2017-10-07T05:20:01.747Z,85.7
2017-10-07T05:21:00.943Z,85.9
2017-10-07T05:22:00.135Z,86.2
2017-10-07T05:23:58.717Z,85.8
2017-10-07T05:24:57.656Z,85.8
2017-10-07T05:25:57.104Z,85.8
2017-10-07T05:26:56.053Z,85.9
2017-10-07T05:27:55.250Z,85.9
2017-10-07T05:28:54.570Z,86.2
2017-10-07T05:29:53.899Z,85.6
2017-10-07T05:30:52.844Z,85.7
2017-10-07T05:31:51.794Z,85.6
2017-10-07T05:32:51.368Z,85.9
2017-10-07T05:33:21.752Z,85.9
2017-10-07T05:33:52.004Z,86
2017-10-07T05:34:49.314Z,86.1
2017-10-07T05:35:48.502Z,86.2
2017-10-07T05:36:47.823Z,86.1
2017-10-07T05:37:46.769Z,86.3
2017-10-07T05:38:45.710Z,86
2017-10-07T05:39:45.028Z,86.1
2017-10-07T05:40:44.357Z,86
2017-10-07T05:41:43.555Z,86.2
2017-10-07T05:43:41.631Z,85.5
2017-10-07T05:44:40.821Z,85.7
2017-10-07T05:45:40.278Z,85.5
2017-10-07T05:46:39.223Z,85.6
2017-10-07T05:47:38.157Z,85.4
2017-10-07T05:48:37.732Z,85.6
2017-10-07T05:49:36.419Z,85.6
2017-10-07T05:50:35.611Z,85.8
2017-10-07T05:51:34.924Z,85.8
2017-10-07T05:52:34.120Z,85.9
2017-10-07T05:53:33.317Z,85.9
2017-10-07T05:54:32.514Z,85.7
2017-10-07T05:55:31.458Z,85.8
2017-10-07T05:56:30.659Z,86.1
2017-10-07T05:57:30.108Z,86
2017-10-07T05:58:28.924Z,86
2017-10-07T05:59:28.496Z,86
2017-10-07T06:00:27.183Z,85.8
2017-10-07T06:01:26.375Z,85.9
2017-10-07T06:02:25.561Z,85.7
2017-10-07T06:03:25.010Z,85.8
2017-10-07T06:04:24.072Z,85.5
2017-10-07T06:05:22.889Z,85.6
2017-10-07T06:06:22.213Z,85.7
2017-10-07T06:07:21.531Z,86
2017-10-07T06:08:20.393Z,86.1
2017-10-07T06:08:50.903Z,86.1
2017-10-07T06:09:21.420Z,86
2017-10-07T06:09:52.079Z,86
2017-10-07T06:10:22.564Z,86.1
2017-10-07T06:11:17.996Z,86
2017-10-07T06:12:17.223Z,85.9
2017-10-07T06:13:16.441Z,85.9
2017-10-07T06:14:15.290Z,85.7
2017-10-07T06:15:14.609Z,86
2017-10-07T06:16:13.933Z,86
2017-10-07T06:17:13.134Z,86.1
2017-10-07T06:18:12.198Z,86.1
2017-10-07T06:19:11.150Z,85.8
2017-10-07T06:20:10.478Z,85.9
2017-10-07T06:21:09.548Z,85.8
2017-10-07T06:22:08.871Z,85.7
2017-10-07T06:23:07.938Z,85.6
2017-10-07T06:24:07.385Z,85.4
2017-10-07T06:25:06.204Z,85.5
2017-10-07T06:26:05.266Z,85.6
2017-10-07T06:28:03.622Z,85.1
2017-10-07T06:29:02.948Z,85.1
2017-10-07T06:30:02.146Z,85.1
2017-10-07T06:31:01.337Z,85.2
2017-10-07T06:32:00.159Z,84.7
2017-10-07T06:32:59.360Z,84.7
2017-10-07T06:33:58.557Z,84.7
2017-10-07T06:34:57.624Z,84.5
2017-10-07T06:35:56.819Z,84.6
2017-10-07T06:36:56.013Z,84.3
2017-10-07T06:37:55.455Z,84.5
2017-10-07T06:38:54.403Z,84.1
2017-10-07T06:39:53.474Z,84.2
2017-10-07T06:40:52.674Z,84.4
2017-10-07T06:41:51.991Z,84.4
2017-10-07T06:42:51.192Z,84.2
2017-10-07T06:43:50.385Z,83.9
2017-10-07T06:44:49.329Z,83.7
2017-10-07T06:45:48.282Z,84
2017-10-07T06:46:47.472Z,83.7
2017-10-07T06:47:46.547Z,83.9
2017-10-07T06:48:46.120Z,83.8
2017-10-07T06:49:45.052Z,83.8
2017-10-07T06:50:44.377Z,84
2017-10-07T06:51:43.448Z,84.3
2017-10-07T06:52:42.648Z,84.5
2017-10-07T06:53:41.710Z,84.7
2017-10-07T06:54:41.032Z,84
2017-10-07T06:55:39.842Z,84.1
2017-10-07T06:56:39.413Z,84
2017-10-07T06:57:38.353Z,84
2017-10-07T06:58:37.552Z,84.1
2017-10-07T06:59:36.613Z,84.2
2017-10-07T07:00:35.813Z,84.5
2017-10-07T07:01:35.137Z,84.3
2017-10-07T07:02:34.209Z,84.3
2017-10-07T07:03:33.402Z,84.7
2017-10-07T07:04:32.348Z,85.5
2017-10-07T07:05:31.660Z,85.7
2017-10-07T07:06:30.845Z,86.1
2017-10-07T07:07:29.912Z,86.6
2017-10-07T07:08:29.104Z,86.6
2017-10-07T07:09:28.040Z,86.7
2017-10-07T07:10:27.234Z,86.2
2017-10-07T07:11:26.561Z,86.3
2017-10-07T07:12:25.497Z,86.3
2017-10-07T07:13:24.860Z,86.5
2017-10-07T07:14:23.920Z,86.9
2017-10-07T07:16:22.508Z,86.5
2017-10-07T07:17:21.573Z,86.7
2017-10-07T07:18:20.890Z,85.7
2017-10-07T07:19:19.708Z,86
2017-10-07T07:20:19.023Z,85.7
2017-10-07T07:21:18.212Z,85.8
2017-10-07T07:22:17.033Z,86.1
2017-10-07T07:23:16.478Z,86.5
2017-10-07T07:24:15.680Z,85.2
2017-10-07T07:25:14.868Z,85.8
2017-10-07T07:26:13.965Z,86.3
2017-10-07T07:27:13.274Z,86.6
2017-10-07T07:28:11.970Z,86.2
2017-10-07T07:29:11.664Z,86.9
2017-10-07T07:30:10.609Z,88
2017-10-07T07:31:09.675Z,88.7
2017-10-07T07:32:08.740Z,88.2
2017-10-07T07:33:07.936Z,88.7
2017-10-07T07:34:07.378Z,88.6
2017-10-07T07:35:06.197Z,89.1
2017-10-07T07:36:05.519Z,88
2017-10-07T07:37:04.851Z,89.2
2017-10-07T07:38:04.044Z,88
2017-10-07T07:39:03.116Z,88.5
2017-10-07T07:40:02.311Z,88.4
2017-10-07T07:41:01.138Z,88.2
2017-10-07T07:42:00.461Z,88.3
2017-10-07T07:42:59.777Z,88.2
2017-10-07T07:43:58.848Z,88.1
2017-10-07T07:44:58.046Z,87.9
2017-10-07T07:45:57.244Z,87.8
2017-10-07T07:46:56.440Z,87.3
2017-10-07T07:47:55.258Z,87.1
2017-10-07T07:48:54.452Z,86.6
2017-10-07T07:49:54.016Z,86.6
2017-10-07T07:50:52.708Z,86.8
2017-10-07T07:51:51.902Z,87.5
2017-10-07T07:53:50.453Z,86.8
2017-10-07T07:54:49.398Z,85.6
2017-10-07T07:55:48.719Z,86.7
2017-10-07T07:56:48.038Z,86.3
2017-10-07T07:57:46.985Z,86.5
2017-10-07T07:58:46.175Z,85.9
2017-10-07T07:59:45.502Z,85.2
2017-10-07T08:00:44.329Z,84.4
2017-10-07T08:01:43.516Z,84.1
2017-10-07T08:02:42.840Z,83.9
2017-10-07T08:03:41.795Z,84.6
2017-10-07T08:04:41.369Z,84.6
2017-10-07T08:05:40.441Z,83.5
2017-10-07T08:06:39.386Z,83.3
2017-10-07T08:07:38.708Z,82.2
2017-10-07T08:08:37.904Z,82.4
2017-10-07T08:09:37.231Z,82.4
2017-10-07T08:10:36.052Z,81.9
2017-10-07T08:11:35.111Z,82
2017-10-07T08:12:34.313Z,81.7
2017-10-07T08:13:33.510Z,81.4
2017-10-07T08:14:32.704Z,81.6
2017-10-07T08:15:31.775Z,81.1
2017-10-07T08:16:31.100Z,81
2017-10-07T08:17:30.427Z,81.2
2017-10-07T08:18:29.248Z,80.2
2017-10-07T08:19:28.566Z,80.6
2017-10-07T08:20:27.626Z,80.2
2017-10-07T08:21:26.944Z,79.1
2017-10-07T08:22:26.144Z,78.8
2017-10-07T08:23:24.958Z,79.1
2017-10-07T08:24:24.286Z,79.4
2017-10-07T08:25:23.354Z,79.5
2017-10-07T08:26:22.805Z,80.1
2017-10-07T08:27:21.990Z,80.3
2017-10-07T08:28:20.932Z,80.5
2017-10-07T08:29:20.379Z,80.4
2017-10-07T08:30:19.327Z,80.1
2017-10-07T08:31:18.526Z,80.1
2017-10-07T08:31:48.910Z,80.1
2017-10-07T08:32:19.163Z,79.3
2017-10-07T08:33:16.845Z,81
2017-10-07T08:34:15.786Z,79.8
2017-10-07T08:35:15.486Z,80
2017-10-07T08:36:14.675Z,80.5
2017-10-07T08:37:13.743Z,80.5
2017-10-07T08:38:12.809Z,79.3
2017-10-07T08:39:11.752Z,79.3
2017-10-07T08:40:11.196Z,79.8
2017-10-07T08:41:10.259Z,79.9
2017-10-07T08:42:09.323Z,79.6
2017-10-07T08:43:08.522Z,80.2
2017-10-07T08:44:07.710Z,80.2
2017-10-07T08:45:07.174Z,80.3
2017-10-07T08:46:06.102Z,80.3
2017-10-07T08:47:05.305Z,79.1
2017-10-07T08:48:04.239Z,79.6
2017-10-07T08:49:03.691Z,78.5
2017-10-07T08:50:02.888Z,79.1
2017-10-07T08:51:01.962Z,79.2
2017-10-07T08:52:01.034Z,79.7
2017-10-07T08:53:00.351Z,79.7
2017-10-07T08:53:59.665Z,80.4
2017-10-07T08:54:58.486Z,80.8
2017-10-07T08:55:57.814Z,81.3
2017-10-07T08:56:57.134Z,81.5
2017-10-07T08:57:56.328Z,81.6
2017-10-07T08:58:55.518Z,82
2017-10-07T08:59:54.588Z,82.5
2017-10-07T09:00:53.531Z,83
2017-10-07T09:01:52.980Z,83
2017-10-07T09:02:52.177Z,83.7
2017-10-07T09:03:51.110Z,83.7
2017-10-07T09:04:50.305Z,84.5
2017-10-07T09:05:49.375Z,83.5
2017-10-07T09:06:48.576Z,83.5
2017-10-07T09:07:47.645Z,83.6
2017-10-07T09:08:47.093Z,83.6
2017-10-07T09:09:46.161Z,83.1
2017-10-07T09:10:45.481Z,83.6
2017-10-07T09:11:44.563Z,83.3
2017-10-07T09:12:43.887Z,83.1
2017-10-07T09:13:43.082Z,82.9
2017-10-07T09:14:42.033Z,83.3
2017-10-07T09:15:41.235Z,83
2017-10-07T09:16:40.307Z,83.1
2017-10-07T09:17:39.743Z,82.3
2017-10-07T09:18:38.684Z,82.4
2017-10-07T09:19:37.757Z,82.3
2017-10-07T09:20:37.203Z,82.7
2017-10-07T09:21:36.535Z,81.9
2017-10-07T09:22:35.224Z,82.7
2017-10-07T09:23:34.796Z,82
2017-10-07T09:24:33.856Z,82.2
2017-10-07T09:25:33.299Z,82.4
2017-10-07T09:26:31.984Z,82.4
2017-10-07T09:27:31.314Z,82.6
2017-10-07T09:28:30.385Z,83
2017-10-07T09:30:28.849Z,82.9
2017-10-07T09:31:28.288Z,81.5
2017-10-07T09:32:27.102Z,81.9
2017-10-07T09:33:26.169Z,81.2
2017-10-07T09:34:25.358Z,82.2
2017-10-07T09:35:24.810Z,81.9
2017-10-07T09:36:24.128Z,82
2017-10-07T09:36:54.389Z,82
2017-10-07T09:38:22.399Z,81.1
2017-10-07T09:39:21.462Z,80.5
2017-10-07T09:40:20.537Z,81
2017-10-07T09:41:19.910Z,80.8
2017-10-07T09:42:18.728Z,80.6
2017-10-07T09:43:18.172Z,79.7
2017-10-07T09:44:17.245Z,78.7
2017-10-07T09:45:16.818Z,79.4
2017-10-07T09:46:15.644Z,79.6
2017-10-07T09:47:14.969Z,78.8
2017-10-07T09:48:13.913Z,78.5
2017-10-07T09:49:13.109Z,79.1
2017-10-07T09:50:12.438Z,77.8
2017-10-07T09:51:11.757Z,77.1
2017-10-07T09:52:11.078Z,77.7
2017-10-07T09:53:09.902Z,78.3
2017-10-07T09:54:09.104Z,77.9
2017-10-07T09:55:08.182Z,77.4
2017-10-07T09:56:07.511Z,76.5
2017-10-07T09:57:06.709Z,76.6
2017-10-07T09:58:05.657Z,76.7
2017-10-07T09:59:04.979Z,75.6
2017-10-07T10:00:04.178Z,75.1
2017-10-07T10:01:03.636Z,75.3
2017-10-07T10:02:02.703Z,75.3
2017-10-07T10:03:02.032Z,75.8
2017-10-07T10:04:01.103Z,75.8
2017-10-07T10:05:00.317Z,75.8
2017-10-07T10:05:59.011Z,75.8
2017-10-07T10:06:58.590Z,75.9
2017-10-07T10:07:29.221Z,75.9
2017-10-07T10:07:59.734Z,75.3
2017-10-07T10:08:56.796Z,75.1
2017-10-07T10:09:55.870Z,75.8
2017-10-07T10:10:55.193Z,75.5
2017-10-07T10:11:54.134Z,76
2017-10-07T10:12:53.583Z,76.7
2017-10-07T10:13:52.913Z,75.9
2017-10-07T10:14:51.856Z,75.8
2017-10-07T10:15:51.418Z,75.6
2017-10-07T10:16:50.231Z,75.5
2017-10-07T10:17:20.741Z,75.5
2017-10-07T10:17:51.379Z,76.1
2017-10-07T10:18:21.768Z,76.1
2017-10-07T10:18:52.149Z,76.3
2017-10-07T10:19:22.541Z,76.3
2017-10-07T10:19:52.925Z,76.8
2017-10-07T10:20:23.318Z,76.8
2017-10-07T10:21:46.406Z,76.5
2017-10-07T10:22:45.478Z,76
2017-10-07T10:23:44.923Z,76.4
2017-10-07T10:24:43.737Z,76.5
2017-10-07T10:25:43.063Z,76.9
2017-10-07T10:26:42.164Z,77
2017-10-07T10:27:41.484Z,76.9
2017-10-07T10:28:40.574Z,76.9
2017-10-07T10:29:39.936Z,77.4
2017-10-07T10:30:10.564Z,77.4
2017-10-07T10:30:41.196Z,77.2
2017-10-07T10:31:11.711Z,77.2
2017-10-07T10:32:37.447Z,76.3
2017-10-07T10:33:36.267Z,76.4
2017-10-07T10:34:35.461Z,76.3
2017-10-07T10:35:34.902Z,76.6
2017-10-07T10:36:33.850Z,76.3
2017-10-07T10:37:33.163Z,76.3
2017-10-07T10:38:32.489Z,75.7
2017-10-07T10:39:31.686Z,76
2017-10-07T10:40:30.753Z,76.2
2017-10-07T10:42:29.331Z,76.9
2017-10-07T10:43:28.399Z,76.5
2017-10-07T10:44:27.477Z,76.3
2017-10-07T10:45:26.803Z,76.2
2017-10-07T10:46:26.128Z,75.4
2017-10-07T10:47:25.197Z,75
2017-10-07T10:48:24.276Z,74.5
2017-10-07T10:49:23.350Z,74.4
2017-10-07T10:50:22.426Z,75
2017-10-07T10:51:21.757Z,73.9
2017-10-07T10:52:21.072Z,74
2017-10-07T10:53:20.137Z,72.6
2017-10-07T10:54:19.332Z,72.2
2017-10-07T10:55:18.653Z,71.8
2017-10-07T10:56:17.596Z,71.9
2017-10-07T10:57:16.791Z,72.4
2017-10-07T10:58:16.106Z,72
2017-10-07T10:59:15.428Z,72.3
2017-10-07T10:59:46.079Z,72.3
2017-10-07T11:00:16.716Z,70.2
2017-10-07T11:00:47.102Z,70.2
2017-10-07T11:01:17.737Z,69.3
2017-10-07T11:01:48.380Z,69.3
2017-10-07T11:03:12.254Z,69.8
2017-10-07T11:04:11.080Z,69.4
2017-10-07T11:05:10.398Z,69.8
2017-10-07T11:06:09.595Z,69.4
2017-10-07T11:07:08.795Z,68.6
2017-10-07T11:08:07.994Z,68.5
2017-10-07T11:09:07.186Z,68.8
2017-10-07T11:10:06.501Z,68.5
2017-10-07T11:11:05.703Z,67.2
2017-10-07T11:11:36.089Z,67.2
2017-10-07T11:12:06.730Z,66.5
2017-10-07T11:13:04.038Z,67.5
2017-10-07T11:14:03.107Z,67.5
2017-10-07T11:15:02.177Z,68.1
2017-10-07T11:16:01.374Z,66.8
2017-10-07T11:17:00.829Z,67.1
2017-10-07T11:18:00.015Z,67.1
2017-10-07T11:18:59.334Z,68.2
2017-10-07T11:19:58.158Z,67.1
2017-10-07T11:21:56.734Z,66.5
2017-10-07T11:22:56.077Z,67.3
2017-10-07T11:23:55.020Z,67.5
2017-10-07T11:24:54.466Z,67
2017-10-07T11:25:53.679Z,67.1
2017-10-07T11:26:52.876Z,66
2017-10-07T11:27:52.193Z,65.1
2017-10-07T11:28:51.157Z,65.8
2017-10-07T11:29:50.616Z,65.3
2017-10-07T11:30:49.428Z,65.8
2017-10-07T11:31:48.625Z,65.5
2017-10-07T11:32:47.823Z,64.8
2017-10-07T11:33:47.020Z,64
2017-10-07T11:34:46.211Z,64.6
2017-10-07T11:35:45.532Z,64.4
2017-10-07T11:36:44.600Z,63.5
2017-10-07T11:37:44.041Z,63.6
2017-10-07T11:38:42.861Z,62.7
2017-10-07T11:39:42.557Z,62.5
2017-10-07T11:40:41.382Z,62.9
2017-10-07T11:41:40.832Z,62.3
2017-10-07T11:42:39.904Z,61.6
2017-10-07T11:43:39.352Z,63.4
2017-10-07T11:44:38.175Z,61.9
2017-10-07T11:45:37.623Z,61.6
2017-10-07T11:46:36.937Z,60.9
2017-10-07T11:47:36.009Z,60.6
2017-10-07T11:48:35.462Z,61.6
2017-10-07T11:49:34.157Z,60.9
2017-10-07T11:50:33.342Z,60.4
2017-10-07T11:51:32.914Z,60.4
2017-10-07T11:52:31.985Z,60.3
2017-10-07T11:53:31.430Z,59.9
2017-10-07T11:54:30.125Z,60
2017-10-07T11:55:29.584Z,60.3
2017-10-07T11:56:28.909Z,59.9
2017-10-07T11:56:59.163Z,59.9
2017-10-07T11:57:29.798Z,60.6
2017-10-07T11:58:00.060Z,60.6
2017-10-07T11:58:30.573Z,61.2
2017-10-07T11:59:01.096Z,61.2
2017-10-07T12:00:25.595Z,60.9
2017-10-07T12:01:24.796Z,60.4
2017-10-07T12:02:24.117Z,61
2017-10-07T12:03:23.068Z,60.4
2017-10-07T12:04:22.391Z,60.9
2017-10-07T12:05:21.597Z,60.8
2017-10-07T12:06:20.664Z,60.8
2017-10-07T12:06:51.045Z,60.8
2017-10-07T12:07:21.564Z,61.4
2017-10-07T12:07:52.069Z,61.4
2017-10-07T12:08:22.458Z,61.2
2017-10-07T12:08:52.719Z,61.2
2017-10-07T12:09:22.978Z,61.5
2017-10-07T12:09:53.606Z,61.5
2017-10-07T12:11:16.961Z,60.6
2017-10-07T12:12:16.159Z,60.9
2017-10-07T12:13:15.347Z,60.1
2017-10-07T12:14:14.544Z,60.2
2017-10-07T12:15:13.857Z,61.7
2017-10-07T12:16:13.178Z,61
2017-10-07T12:17:12.378Z,60.5
2017-10-07T12:18:11.062Z,60.3
2017-10-07T12:19:10.783Z,60.7
2017-10-07T12:20:09.861Z,61.3
2017-10-07T12:21:09.059Z,60.7
2017-10-07T12:22:07.876Z,61.6
2017-10-07T12:23:07.324Z,62.1
2017-10-07T12:24:06.777Z,61.3
2017-10-07T12:25:05.965Z,61.4
2017-10-07T12:26:04.663Z,61.2
2017-10-07T12:27:03.982Z,61.5
2017-10-07T12:28:03.424Z,62.1
2017-10-07T12:29:02.621Z,62.9
2017-10-07T12:30:02.064Z,60.9
2017-10-07T12:31:00.885Z,61.4
2017-10-07T12:32:59.345Z,61
2017-10-07T12:33:58.572Z,60.8
2017-10-07T12:34:57.892Z,61.1
2017-10-07T12:35:56.835Z,61.8
2017-10-07T12:36:56.165Z,61.1
2017-10-07T12:37:55.606Z,62.5
2017-10-07T12:38:25.866Z,62.5
2017-10-07T12:38:56.619Z,63
2017-10-07T12:39:26.999Z,63
2017-10-07T12:39:57.626Z,62.3
2017-10-07T12:40:27.765Z,62.3
2017-10-07T12:41:52.246Z,61.4
2017-10-07T12:42:51.477Z,62.3
2017-10-07T12:43:50.701Z,61.2
2017-10-07T12:44:49.769Z,61.6
2017-10-07T12:45:49.215Z,60.9
2017-10-07T12:46:48.278Z,62.1
2017-10-07T12:47:47.607Z,61
2017-10-07T12:48:46.548Z,62
2017-10-07T12:49:16.924Z,62
2017-10-07T12:49:47.431Z,61.1
2017-10-07T12:50:18.066Z,61.1
2017-10-07T12:50:48.449Z,61.9
2017-10-07T12:51:18.960Z,61.9
2017-10-07T12:52:43.320Z,61.8
2017-10-07T12:54:41.775Z,62.9
2017-10-07T12:55:41.094Z,63.1
2017-10-07T12:56:40.413Z,62.6
2017-10-07T12:57:39.366Z,64.9
2017-10-07T12:58:38.944Z,63.2
2017-10-07T12:59:37.882Z,62.8
2017-10-07T13:00:37.076Z,64.1
2017-10-07T13:02:35.651Z,63.4
2017-10-07T13:03:34.595Z,64.6
2017-10-07T13:04:33.787Z,66.2
2017-10-07T13:05:33.231Z,64.7